createdAt,value
2023-04-03T00:00:01.573Z,27.43
2023-04-03T00:01:01.563Z,27.42
2023-04-03T00:02:01.633Z,27.42
2023-04-03T00:03:01.739Z,27.41
2023-04-03T00:04:01.596Z,27.42
2023-04-03T00:05:01.495Z,27.43
2023-04-03T00:06:01.578Z,27.41
2023-04-03T00:07:01.529Z,27.42
2023-04-03T00:08:01.585Z,27.42
2023-04-03T00:09:01.490Z,27.41
2023-04-03T00:10:01.494Z,27.41
2023-04-03T00:11:01.493Z,27.41
2023-04-03T00:12:01.517Z,27.42
2023-04-03T00:13:01.514Z,27.41
2023-04-03T00:14:01.632Z,27.42
2023-04-03T00:15:01.665Z,27.39
2023-04-03T00:16:01.699Z,27.41
2023-04-03T00:17:01.786Z,27.41
2023-04-03T00:18:01.863Z,27.39
2023-04-03T00:19:01.849Z,27.38
2023-04-03T00:20:01.911Z,27.38
2023-04-03T00:21:01.932Z,27.39
2023-04-03T00:22:02.022Z,27.39
2023-04-03T00:23:02.091Z,27.36
2023-04-03T00:24:02.102Z,27.39
2023-04-03T00:25:02.135Z,27.38
2023-04-03T00:26:02.225Z,27.36
2023-04-03T00:27:02.259Z,27.38
2023-04-03T00:28:02.336Z,27.38
2023-04-03T00:29:02.404Z,27.38
2023-04-03T00:30:02.464Z,27.38
2023-04-03T00:31:02.631Z,27.35
2023-04-03T00:32:02.555Z,27.36
2023-04-03T00:33:02.711Z,27.36
2023-04-03T00:34:02.682Z,27.36
2023-04-03T00:35:02.794Z,27.35
2023-04-03T00:36:02.831Z,27.35
2023-04-03T00:37:02.881Z,27.35
2023-04-03T00:38:02.918Z,27.35
2023-04-03T00:39:03.035Z,27.38
2023-04-03T00:40:03.013Z,27.35
2023-04-03T00:41:03.127Z,27.33
2023-04-03T00:42:03.139Z,27.33
2023-04-03T00:43:03.184Z,27.36
2023-04-03T00:44:03.253Z,27.36
2023-04-03T00:45:03.311Z,27.33
2023-04-03T00:46:03.469Z,27.32
2023-04-03T00:47:03.426Z,27.33
2023-04-03T00:48:03.551Z,27.33
2023-04-03T00:49:03.527Z,27.36
2023-04-03T00:50:03.607Z,27.35
2023-04-03T00:51:03.650Z,27.33
2023-04-03T00:52:03.711Z,27.32
2023-04-03T00:53:03.787Z,27.32
2023-04-03T00:54:03.838Z,27.33
2023-04-03T00:55:03.959Z,27.32
2023-04-03T00:56:03.952Z,27.32
2023-04-03T00:57:04.027Z,27.33
2023-04-03T00:58:04.088Z,27.33
2023-04-03T00:59:04.172Z,27.32
2023-04-03T01:00:04.231Z,27.32
2023-04-03T01:01:04.302Z,27.32
2023-04-03T01:02:04.401Z,27.32
2023-04-03T01:03:04.385Z,27.31
2023-04-03T01:04:04.512Z,27.32
2023-04-03T01:05:04.476Z,27.31
2023-04-03T01:06:04.642Z,27.29
2023-04-03T01:07:04.657Z,27.31
2023-04-03T01:08:04.746Z,27.32
2023-04-03T01:09:04.793Z,27.31
2023-04-03T01:10:04.910Z,27.31
2023-04-03T01:11:04.882Z,27.31
2023-04-03T01:12:04.947Z,27.31
2023-04-03T01:13:05.024Z,27.31
2023-04-03T01:14:05.050Z,27.29
2023-04-03T01:15:05.144Z,27.28
2023-04-03T01:16:05.230Z,27.28
2023-04-03T01:17:05.264Z,27.29
2023-04-03T01:18:05.450Z,27.26
2023-04-03T01:19:05.434Z,27.28
2023-04-03T01:20:05.432Z,27.26
2023-04-03T01:21:05.509Z,27.26
2023-04-03T01:22:05.613Z,27.28
2023-04-03T01:23:05.685Z,27.26
2023-04-03T01:24:05.740Z,27.26
2023-04-03T01:25:05.791Z,27.28
2023-04-03T01:26:05.823Z,27.26
2023-04-03T01:27:05.928Z,27.26
2023-04-03T01:28:05.975Z,27.28
2023-04-03T01:29:06.063Z,27.26
2023-04-03T01:30:06.125Z,27.26
2023-04-03T01:31:06.192Z,27.25
2023-04-03T01:32:06.240Z,27.24
2023-04-03T01:33:06.328Z,27.28
2023-04-03T01:34:06.346Z,27.25
2023-04-03T01:35:06.411Z,27.25
2023-04-03T01:36:06.571Z,27.26
2023-04-03T01:37:06.555Z,27.25
2023-04-03T01:38:06.595Z,27.24
2023-04-03T01:39:06.697Z,27.25
2023-04-03T01:40:06.748Z,27.25
2023-04-03T01:41:06.842Z,27.21
2023-04-03T01:42:06.871Z,27.25
2023-04-03T01:43:06.952Z,27.22
2023-04-03T01:44:06.988Z,27.24
2023-04-03T01:45:07.083Z,27.22
2023-04-03T01:46:07.150Z,27.24
2023-04-03T01:47:07.209Z,27.24
2023-04-03T01:48:07.220Z,27.24
2023-04-03T01:49:07.271Z,27.21
2023-04-03T01:50:07.410Z,27.21
2023-04-03T01:51:07.403Z,27.22
2023-04-03T01:52:07.453Z,27.22
2023-04-03T01:53:07.517Z,27.21
2023-04-03T01:54:07.644Z,27.21
2023-04-03T01:55:07.621Z,27.21
2023-04-03T01:56:07.695Z,27.21
2023-04-03T01:57:07.738Z,27.19
2023-04-03T01:58:07.756Z,27.21
2023-04-03T01:59:07.800Z,27.19
2023-04-03T02:00:07.977Z,27.22
2023-04-03T02:01:07.948Z,27.19
2023-04-03T02:02:07.923Z,27.21
2023-04-03T02:03:08.057Z,27.21
2023-04-03T02:04:08.061Z,27.18
2023-04-03T02:05:08.127Z,27.18
2023-04-03T02:06:08.111Z,27.19
2023-04-03T02:07:08.216Z,27.21
2023-04-03T02:08:08.263Z,27.21
2023-04-03T02:09:08.331Z,27.22
2023-04-03T02:10:08.343Z,27.19
2023-04-03T02:11:08.391Z,27.19
2023-04-03T02:12:08.460Z,27.16
2023-04-03T02:13:08.541Z,27.18
2023-04-03T02:14:08.582Z,27.18
2023-04-03T02:15:08.618Z,27.18
2023-04-03T02:16:08.727Z,27.16
2023-04-03T02:17:08.739Z,27.21
2023-04-03T02:18:08.776Z,27.16
2023-04-03T02:19:08.848Z,27.15
2023-04-03T02:20:08.895Z,27.16
2023-04-03T02:21:08.910Z,27.15
2023-04-03T02:22:08.960Z,27.15
2023-04-03T02:23:09.041Z,27.16
2023-04-03T02:24:09.076Z,27.15
2023-04-03T02:25:09.151Z,27.15
2023-04-03T02:26:09.209Z,27.15
2023-04-03T02:27:09.266Z,27.18
2023-04-03T02:28:09.351Z,27.16
2023-04-03T02:29:09.323Z,27.16
2023-04-03T02:30:09.383Z,27.16
2023-04-03T02:31:09.449Z,27.16
2023-04-03T02:32:09.510Z,27.15
2023-04-03T02:33:09.527Z,27.13
2023-04-03T02:34:09.608Z,27.15
2023-04-03T02:35:09.645Z,27.15
2023-04-03T02:36:09.727Z,27.15
2023-04-03T02:37:09.747Z,27.15
2023-04-03T02:38:09.812Z,27.13
2023-04-03T02:39:09.848Z,27.13
2023-04-03T02:40:09.868Z,27.15
2023-04-03T02:41:09.933Z,27.16
2023-04-03T02:42:09.963Z,27.13
2023-04-03T02:43:09.936Z,27.12
2023-04-03T02:44:09.976Z,27.13
2023-04-03T02:45:10.021Z,27.12
2023-04-03T02:46:10.071Z,27.15
2023-04-03T02:47:10.110Z,27.13
2023-04-03T02:48:10.174Z,27.13
2023-04-03T02:49:10.074Z,27.12
2023-04-03T02:50:10.128Z,27.13
2023-04-03T02:51:10.086Z,27.11
2023-04-03T02:52:10.131Z,27.11
2023-04-03T02:53:10.145Z,27.11
2023-04-03T02:54:10.164Z,27.12
2023-04-03T02:55:10.190Z,27.12
2023-04-03T02:56:10.237Z,27.11
2023-04-03T02:57:10.325Z,27.11
2023-04-03T02:58:10.287Z,27.11
2023-04-03T02:59:10.346Z,27.11
2023-04-03T03:00:10.411Z,27.12
2023-04-03T03:01:10.446Z,27.09
2023-04-03T03:02:10.446Z,27.09
2023-04-03T03:03:10.522Z,27.13
2023-04-03T03:04:10.490Z,27.09
2023-04-03T03:05:10.569Z,27.09
2023-04-03T03:06:10.567Z,27.06
2023-04-03T03:07:10.581Z,27.12
2023-04-03T03:08:10.593Z,27.08
2023-04-03T03:09:10.588Z,27.08
2023-04-03T03:10:10.583Z,27.09
2023-04-03T03:11:10.595Z,27.08
2023-04-03T03:12:10.630Z,27.09
2023-04-03T03:13:10.599Z,27.06
2023-04-03T03:14:10.577Z,27.06
2023-04-03T03:15:10.605Z,27.09
2023-04-03T03:16:10.677Z,27.06
2023-04-03T03:17:10.660Z,27.08
2023-04-03T03:18:10.654Z,27.06
2023-04-03T03:19:10.687Z,27.08
2023-04-03T03:20:10.702Z,27.06
2023-04-03T03:21:10.800Z,27.05
2023-04-03T03:22:10.759Z,27.06
2023-04-03T03:23:10.732Z,27.06
2023-04-03T03:24:10.784Z,27.06
2023-04-03T03:25:10.735Z,27.08
2023-04-03T03:26:10.721Z,27.09
2023-04-03T03:27:10.768Z,27.08
2023-04-03T03:28:10.751Z,27.06
2023-04-03T03:29:10.823Z,27.06
2023-04-03T03:30:10.835Z,27.05
2023-04-03T03:31:10.812Z,27.06
2023-04-03T03:32:10.766Z,27.05
2023-04-03T03:33:10.764Z,27.06
2023-04-03T03:34:10.762Z,27.05
2023-04-03T03:35:10.742Z,27.05
2023-04-03T03:36:10.750Z,27.06
2023-04-03T03:37:10.706Z,27.03
2023-04-03T03:38:10.720Z,27.05
2023-04-03T03:39:10.737Z,27.02
2023-04-03T03:40:10.758Z,27.03
2023-04-03T03:41:10.700Z,27.02
2023-04-03T03:42:10.715Z,27.05
2023-04-03T03:43:10.747Z,27.03
2023-04-03T03:44:10.801Z,27.05
2023-04-03T03:45:10.768Z,27.05
2023-04-03T03:46:10.817Z,27.05
2023-04-03T03:47:10.832Z,27.03
2023-04-03T03:48:10.782Z,27.05
2023-04-03T03:49:10.843Z,27.03
2023-04-03T03:50:10.795Z,27.02
2023-04-03T03:51:10.861Z,27.03
2023-04-03T03:52:10.809Z,27.05
2023-04-03T03:53:10.870Z,27.03
2023-04-03T03:54:10.873Z,27.05
2023-04-03T03:55:10.889Z,26.99
2023-04-03T03:56:10.824Z,27.02
2023-04-03T03:57:10.879Z,27.01
2023-04-03T03:58:10.862Z,27.03
2023-04-03T03:59:10.851Z,27.03
2023-04-03T04:00:10.833Z,27.01
2023-04-03T04:01:10.871Z,27.01
2023-04-03T04:02:10.873Z,27.03
2023-04-03T04:03:10.955Z,27.01
2023-04-03T04:04:10.984Z,26.99
2023-04-03T04:05:10.846Z,27.02
2023-04-03T04:06:10.852Z,26.99
2023-04-03T04:07:10.859Z,27.01
2023-04-03T04:08:10.832Z,26.99
2023-04-03T04:09:10.827Z,26.99
2023-04-03T04:10:10.837Z,26.99
2023-04-03T04:11:10.890Z,26.97
2023-04-03T04:12:10.854Z,26.97
2023-04-03T04:13:10.866Z,26.95
2023-04-03T04:14:10.864Z,26.97
2023-04-03T04:15:10.919Z,26.95
2023-04-03T04:16:11.375Z,26.95
2023-04-03T04:17:10.867Z,26.92
2023-04-03T04:18:10.891Z,26.92
2023-04-03T04:19:10.884Z,26.91
2023-04-03T04:20:10.893Z,26.95
2023-04-03T04:21:10.901Z,26.94
2023-04-03T04:22:10.872Z,26.91
2023-04-03T04:23:10.869Z,26.91
2023-04-03T04:24:10.874Z,26.89
2023-04-03T04:25:10.884Z,26.87
2023-04-03T04:26:10.928Z,26.89
2023-04-03T04:27:10.868Z,26.88
2023-04-03T04:28:10.905Z,26.88
2023-04-03T04:29:10.842Z,26.89
2023-04-03T04:30:10.839Z,26.87
2023-04-03T04:31:10.904Z,26.89
2023-04-03T04:32:10.860Z,26.89
2023-04-03T04:33:10.972Z,26.87
2023-04-03T04:34:10.876Z,26.85
2023-04-03T04:35:10.947Z,26.85
2023-04-03T04:36:10.977Z,26.84
2023-04-03T04:37:10.864Z,26.82
2023-04-03T04:38:10.886Z,26.85
2023-04-03T04:39:10.879Z,26.84
2023-04-03T04:40:10.886Z,26.82
2023-04-03T04:41:10.880Z,26.84
2023-04-03T04:42:10.895Z,26.81
2023-04-03T04:43:10.881Z,26.84
2023-04-03T04:44:10.904Z,26.84
2023-04-03T04:45:10.901Z,26.84
2023-04-03T04:46:10.950Z,26.85
2023-04-03T04:47:10.871Z,26.87
2023-04-03T04:48:10.860Z,26.82
2023-04-03T04:49:10.867Z,26.82
2023-04-03T04:50:10.878Z,26.82
2023-04-03T04:51:10.869Z,26.84
2023-04-03T04:52:10.907Z,26.84
2023-04-03T04:53:10.910Z,26.85
2023-04-03T04:54:10.898Z,26.84
2023-04-03T04:55:10.918Z,26.84
2023-04-03T04:56:11.467Z,26.82
2023-04-03T04:57:10.936Z,26.84
2023-04-03T04:58:10.948Z,26.84
2023-04-03T04:59:10.966Z,26.84
2023-04-03T05:00:10.958Z,26.82
2023-04-03T05:01:11.177Z,26.84
2023-04-03T05:02:10.947Z,26.82
2023-04-03T05:03:10.960Z,26.85
2023-04-03T05:04:10.963Z,26.84
2023-04-03T05:05:11.108Z,26.82
2023-04-03T05:06:11.007Z,26.85
2023-04-03T05:07:10.966Z,26.84
2023-04-03T05:08:10.972Z,26.81
2023-04-03T05:09:10.992Z,26.82
2023-04-03T05:10:10.976Z,26.82
2023-04-03T05:11:11.024Z,26.84
2023-04-03T05:12:10.997Z,26.84
2023-04-03T05:13:10.953Z,26.85
2023-04-03T05:14:11.029Z,26.87
2023-04-03T05:15:10.970Z,26.85
2023-04-03T05:16:11.045Z,26.85
2023-04-03T05:17:10.955Z,26.84
2023-04-03T05:18:10.961Z,26.84
2023-04-03T05:19:10.975Z,26.87
2023-04-03T05:20:10.999Z,26.81
2023-04-03T05:21:10.993Z,26.85
2023-04-03T05:22:10.951Z,26.85
2023-04-03T05:23:11.016Z,26.85
2023-04-03T05:24:11.007Z,26.84
2023-04-03T05:25:11.088Z,26.82
2023-04-03T05:26:11.388Z,26.82
2023-04-03T05:27:11.003Z,26.81
2023-04-03T05:28:10.990Z,26.85
2023-04-03T05:29:11.021Z,26.84
2023-04-03T05:30:11.016Z,26.85
2023-04-03T05:31:11.072Z,26.82
2023-04-03T05:32:11.021Z,26.87
2023-04-03T05:33:11.067Z,26.85
2023-04-03T05:34:11.002Z,26.85
2023-04-03T05:35:11.040Z,26.81
2023-04-03T05:36:10.995Z,26.84
2023-04-03T05:37:10.977Z,26.85
2023-04-03T05:38:11.086Z,26.81
2023-04-03T05:39:11.043Z,26.85
2023-04-03T05:40:11.106Z,26.84
2023-04-03T05:41:11.022Z,26.84
2023-04-03T05:42:11.021Z,26.84
2023-04-03T05:43:11.024Z,26.84
2023-04-03T05:44:11.049Z,26.82
2023-04-03T05:45:11.018Z,26.84
2023-04-03T05:46:11.047Z,26.85
2023-04-03T05:47:10.962Z,26.84
2023-04-03T05:48:11.080Z,26.84
2023-04-03T05:49:11.051Z,26.82
2023-04-03T05:50:11.009Z,26.82
2023-04-03T05:51:11.044Z,26.85
2023-04-03T05:52:11.061Z,26.82
2023-04-03T05:53:11.010Z,26.82
2023-04-03T05:54:11.007Z,26.84
2023-04-03T05:55:11.044Z,26.84
2023-04-03T05:56:11.031Z,26.84
2023-04-03T05:57:11.059Z,26.85
2023-04-03T05:58:11.713Z,26.84
2023-04-03T05:59:11.051Z,26.85
2023-04-03T06:00:11.040Z,26.84
2023-04-03T06:01:11.055Z,26.85
2023-04-03T06:02:11.073Z,26.84
2023-04-03T06:03:11.130Z,26.87
2023-04-03T06:04:11.141Z,26.84
2023-04-03T06:05:11.163Z,26.87
2023-04-03T06:06:11.053Z,26.87
2023-04-03T06:07:11.048Z,26.85
2023-04-03T06:08:11.077Z,26.82
2023-04-03T06:09:11.022Z,26.85
2023-04-03T06:10:11.123Z,26.88
2023-04-03T06:11:11.014Z,26.87
2023-04-03T06:12:11.033Z,26.84
2023-04-03T06:13:11.041Z,26.88
2023-04-03T06:14:11.017Z,26.88
2023-04-03T06:15:11.032Z,26.85
2023-04-03T06:16:11.070Z,26.87
2023-04-03T06:17:11.072Z,26.87
2023-04-03T06:18:11.034Z,26.85
2023-04-03T06:19:11.039Z,26.87
2023-04-03T06:20:11.058Z,26.88
2023-04-03T06:21:11.047Z,26.89
2023-04-03T06:22:11.105Z,26.89
2023-04-03T06:23:11.091Z,26.89
2023-04-03T06:24:11.081Z,26.89
2023-04-03T06:25:11.115Z,26.89
2023-04-03T06:26:11.086Z,26.91
2023-04-03T06:27:11.083Z,26.89
2023-04-03T06:28:11.099Z,26.91
2023-04-03T06:29:11.105Z,26.94
2023-04-03T06:30:11.055Z,26.94
2023-04-03T06:31:11.077Z,26.92
2023-04-03T06:32:11.079Z,26.92
2023-04-03T06:33:11.110Z,26.95
2023-04-03T06:34:11.052Z,26.92
2023-04-03T06:35:11.098Z,26.91
2023-04-03T06:36:11.150Z,26.95
2023-04-03T06:37:11.073Z,26.94
2023-04-03T06:38:11.061Z,26.95
2023-04-03T06:39:11.067Z,26.97
2023-04-03T06:40:11.070Z,26.94
2023-04-03T06:41:11.098Z,26.95
2023-04-03T06:42:11.085Z,26.97
2023-04-03T06:43:11.088Z,26.95
2023-04-03T06:44:11.109Z,26.95
2023-04-03T06:45:11.119Z,26.97
2023-04-03T06:46:11.122Z,26.98
2023-04-03T06:47:11.114Z,26.99
2023-04-03T06:48:11.155Z,26.99
2023-04-03T06:49:11.144Z,26.98
2023-04-03T06:50:11.133Z,27.01
2023-04-03T06:51:11.142Z,26.99
2023-04-03T06:52:11.153Z,26.99
2023-04-03T06:53:11.522Z,27.02
2023-04-03T06:54:11.111Z,27.03
2023-04-03T06:55:11.149Z,27.03
2023-04-03T06:56:11.177Z,27.05
2023-04-03T06:57:11.187Z,27.03
2023-04-03T06:58:11.149Z,27.03
2023-04-03T06:59:11.152Z,27.03
2023-04-03T07:00:11.160Z,27.05
2023-04-03T07:01:11.101Z,27.05
2023-04-03T07:02:11.223Z,27.05
2023-04-03T07:03:11.124Z,27.05
2023-04-03T07:04:11.175Z,27.05
2023-04-03T07:05:11.131Z,27.06
2023-04-03T07:06:11.145Z,27.05
2023-04-03T07:07:11.263Z,27.06
2023-04-03T07:08:11.133Z,27.05
2023-04-03T07:09:11.088Z,27.06
2023-04-03T07:10:11.142Z,27.06
2023-04-03T07:11:11.135Z,27.08
2023-04-03T07:12:11.129Z,27.06
2023-04-03T07:13:11.094Z,27.08
2023-04-03T07:14:11.101Z,27.08
2023-04-03T07:15:11.112Z,27.08
2023-04-03T07:16:11.146Z,27.09
2023-04-03T07:17:11.116Z,27.08
2023-04-03T07:18:11.150Z,27.09
2023-04-03T07:19:11.093Z,27.11
2023-04-03T07:20:11.133Z,27.09
2023-04-03T07:21:11.382Z,27.09
2023-04-03T07:22:11.246Z,27.08
2023-04-03T07:23:11.157Z,27.09
2023-04-03T07:24:13.226Z,27.11
2023-04-03T07:25:11.126Z,27.11
2023-04-03T07:26:11.140Z,27.13
2023-04-03T07:27:11.137Z,27.12
2023-04-03T07:28:11.122Z,27.12
2023-04-03T07:29:11.122Z,27.13
2023-04-03T07:30:11.120Z,27.13
2023-04-03T07:31:11.149Z,27.15
2023-04-03T07:32:11.127Z,27.13
2023-04-03T07:33:11.142Z,27.13
2023-04-03T07:34:11.096Z,27.16
2023-04-03T07:35:11.081Z,27.16
2023-04-03T07:36:11.110Z,27.16
2023-04-03T07:37:11.050Z,27.15
2023-04-03T07:38:11.076Z,27.16
2023-04-03T07:39:11.016Z,27.18
2023-04-03T07:40:11.137Z,27.19
2023-04-03T07:41:11.120Z,27.16
2023-04-03T07:42:11.120Z,27.19
2023-04-03T07:43:11.160Z,27.18
2023-04-03T07:44:11.204Z,27.19
2023-04-03T07:45:11.212Z,27.21
2023-04-03T07:46:11.270Z,27.21
2023-04-03T07:47:11.233Z,27.21
2023-04-03T07:48:11.291Z,27.22
2023-04-03T07:49:11.353Z,27.21
2023-04-03T07:50:11.292Z,27.21
2023-04-03T07:51:11.351Z,27.21
2023-04-03T07:52:11.308Z,27.22
2023-04-03T07:53:11.367Z,27.24
2023-04-03T07:54:11.373Z,27.24
2023-04-03T07:55:11.420Z,27.24
2023-04-03T07:56:11.442Z,27.25
2023-04-03T07:57:11.477Z,27.26
2023-04-03T07:58:11.437Z,27.26
2023-04-03T07:59:11.450Z,27.26
2023-04-03T08:00:11.485Z,27.28
2023-04-03T08:01:11.530Z,27.29
2023-04-03T08:02:11.536Z,27.28
2023-04-03T08:03:12.721Z,27.29
2023-04-03T08:04:11.739Z,27.31
2023-04-03T08:05:11.716Z,27.29
2023-04-03T08:06:15.498Z,27.31
2023-04-03T08:07:11.725Z,27.31
2023-04-03T08:08:11.741Z,27.35
2023-04-03T08:09:11.738Z,27.33
2023-04-03T08:10:11.714Z,27.33
2023-04-03T08:11:11.784Z,27.35
2023-04-03T08:12:11.684Z,27.35
2023-04-03T08:13:11.707Z,27.35
2023-04-03T08:15:30.750Z,27.33
2023-04-03T08:16:30.803Z,27.32
2023-04-03T08:17:30.792Z,27.36
2023-04-03T08:18:30.756Z,27.36
2023-04-03T08:19:30.778Z,27.38
2023-04-03T08:20:30.793Z,27.38
2023-04-03T08:21:30.804Z,27.38
2023-04-03T08:22:30.713Z,27.42
2023-04-03T08:23:30.743Z,27.42
2023-04-03T08:24:30.688Z,27.43
2023-04-03T08:25:30.733Z,27.41
2023-04-03T08:26:30.714Z,27.43
2023-04-03T08:27:30.671Z,27.43
2023-04-03T08:28:30.713Z,27.45
2023-04-03T08:29:32.001Z,27.43
2023-04-03T08:30:30.678Z,27.41
2023-04-03T08:31:30.646Z,27.46
2023-04-03T08:32:30.704Z,27.45
2023-04-03T08:33:30.656Z,27.45
2023-04-03T08:34:30.715Z,27.45
2023-04-03T08:35:30.896Z,27.46
2023-04-03T08:36:30.829Z,27.48
2023-04-03T08:37:30.877Z,27.48
2023-04-03T08:38:30.933Z,27.52
2023-04-03T08:39:30.998Z,27.50
2023-04-03T08:40:31.053Z,27.52
2023-04-03T08:41:31.116Z,27.52
2023-04-03T08:42:31.165Z,27.54
2023-04-03T08:43:31.231Z,27.54
2023-04-03T08:44:31.250Z,27.56
2023-04-03T08:45:31.299Z,27.60
2023-04-03T08:46:31.337Z,27.64
2023-04-03T08:47:31.406Z,27.70
2023-04-03T08:48:31.462Z,27.69
2023-04-03T08:49:31.533Z,27.72
2023-04-03T08:50:31.616Z,27.77
2023-04-03T08:51:31.597Z,27.77
2023-04-03T08:52:31.649Z,27.82
2023-04-03T08:53:31.679Z,27.80
2023-04-03T08:54:32.935Z,27.83
2023-04-03T08:55:31.737Z,27.90
2023-04-03T08:56:31.776Z,27.93
2023-04-03T08:57:31.906Z,27.97
2023-04-03T08:58:31.795Z,28.01
2023-04-03T08:59:31.859Z,28.04
2023-04-03T09:00:31.896Z,28.10
2023-04-03T09:01:38.552Z,28.10
2023-04-03T09:02:31.923Z,28.11
2023-04-03T09:03:31.879Z,28.15
2023-04-03T09:04:31.896Z,28.17
2023-04-03T09:05:31.863Z,28.20
2023-04-03T09:06:31.962Z,28.23
2023-04-03T09:07:31.845Z,28.23
2023-04-03T09:08:31.849Z,28.21
2023-04-03T09:09:31.875Z,28.24
2023-04-03T09:10:31.826Z,28.25
2023-04-03T09:11:31.842Z,28.23
2023-04-03T09:12:31.852Z,28.23
2023-04-03T09:13:31.816Z,28.18
2023-04-03T09:14:31.760Z,28.17
2023-04-03T09:15:38.521Z,28.15
2023-04-03T09:16:32.842Z,28.10
2023-04-03T09:17:31.799Z,28.07
2023-04-03T09:18:31.785Z,28.05
2023-04-03T09:19:31.815Z,28.03
2023-04-03T09:20:31.722Z,28.05
2023-04-03T09:21:31.747Z,28.03
2023-04-03T09:22:32.755Z,28.01
2023-04-03T09:23:31.968Z,28.01
2023-04-03T09:24:31.986Z,28.03
2023-04-03T09:25:32.279Z,28.01
2023-04-03T09:26:32.079Z,27.99
2023-04-03T09:27:32.205Z,28.03
2023-04-03T09:28:35.751Z,28.01
2023-04-03T09:29:33.164Z,28.03
2023-04-03T09:30:32.169Z,28.01
2023-04-03T09:31:32.198Z,28.04
2023-04-03T09:32:32.223Z,28.04
2023-04-03T09:33:32.106Z,28.04
2023-04-03T09:34:32.133Z,28.05
2023-04-03T09:36:32.106Z,28.05
2023-04-03T09:37:32.115Z,28.05
2023-04-03T09:38:32.182Z,28.07
2023-04-03T09:39:32.072Z,28.07
2023-04-03T09:40:32.091Z,28.07
2023-04-03T09:41:32.070Z,28.05
2023-04-03T09:42:32.076Z,28.08
2023-04-03T09:43:32.080Z,28.07
2023-04-03T09:44:32.052Z,28.05
2023-04-03T09:45:32.072Z,28.04
2023-04-03T09:46:32.114Z,28.07
2023-04-03T09:47:32.052Z,28.05
2023-04-03T09:48:32.031Z,28.05
2023-04-03T09:49:32.033Z,28.05
2023-04-03T09:50:31.997Z,28.05
2023-04-03T09:51:32.016Z,28.05
2023-04-03T09:52:32.011Z,28.04
2023-04-03T09:53:31.952Z,28.03
2023-04-03T09:54:32.042Z,28.03
2023-04-03T09:55:32.034Z,28.04
2023-04-03T09:56:31.962Z,28.03
2023-04-03T09:57:32.045Z,28.00
2023-04-03T09:58:42.817Z,28.01
2023-04-03T09:59:32.967Z,28.00
2023-04-03T10:00:31.944Z,28.00
2023-04-03T10:01:31.987Z,28.00
2023-04-03T10:02:31.971Z,27.99
2023-04-03T10:03:34.072Z,28.00
2023-04-03T10:04:32.157Z,27.99
2023-04-03T10:05:32.099Z,27.99
2023-04-03T10:06:32.120Z,27.99
2023-04-03T10:07:32.076Z,27.99
2023-04-03T10:08:32.099Z,27.97
2023-04-03T10:09:32.082Z,27.99
2023-04-03T10:10:32.156Z,27.99
2023-04-03T10:11:32.086Z,27.96
2023-04-03T10:12:32.110Z,27.99
2023-04-03T10:13:34.070Z,27.97
2023-04-03T10:14:32.074Z,27.99
2023-04-03T10:15:32.079Z,28.00
2023-04-03T10:16:32.185Z,28.00
2023-04-03T10:17:32.159Z,27.99
2023-04-03T10:18:32.168Z,27.99
2023-04-03T10:19:32.077Z,28.00
2023-04-03T10:20:32.143Z,28.00
2023-04-03T10:21:32.085Z,28.01
2023-04-03T10:22:32.107Z,28.01
2023-04-03T10:23:32.104Z,28.03
2023-04-03T10:24:32.056Z,27.99
2023-04-03T10:25:32.094Z,28.01
2023-04-03T10:26:32.187Z,28.04
2023-04-03T10:27:32.085Z,28.03
2023-04-03T10:28:32.094Z,28.01
2023-04-03T10:29:32.074Z,28.03
2023-04-03T10:30:32.089Z,28.01
2023-04-03T10:31:32.103Z,28.03
2023-04-03T10:32:32.102Z,28.03
2023-04-03T10:33:32.101Z,28.01
2023-04-03T10:34:32.067Z,28.03
2023-04-03T10:35:32.108Z,28.04
2023-04-03T10:36:32.078Z,28.04
2023-04-03T10:37:32.096Z,28.03
2023-04-03T10:38:32.069Z,28.03
2023-04-03T10:39:32.105Z,28.08
2023-04-03T10:40:32.076Z,28.10
2023-04-03T10:41:32.068Z,28.04
2023-04-03T10:42:32.077Z,28.08
2023-04-03T10:43:32.146Z,28.07
2023-04-03T10:44:32.102Z,28.05
2023-04-03T10:45:32.106Z,28.05
2023-04-03T10:46:32.182Z,28.05
2023-04-03T10:47:34.348Z,28.05
2023-04-03T10:48:32.062Z,28.05
2023-04-03T10:49:32.067Z,28.04
2023-04-03T10:50:32.069Z,28.07
2023-04-03T10:51:32.088Z,28.05
2023-04-03T10:52:32.054Z,28.04
2023-04-03T10:53:32.018Z,28.07
2023-04-03T10:54:32.038Z,28.07
2023-04-03T10:55:32.025Z,28.05
2023-04-03T10:56:32.013Z,28.03
2023-04-03T10:57:32.064Z,28.05
2023-04-03T10:58:32.083Z,28.04
2023-04-03T10:59:32.049Z,28.05
2023-04-03T11:00:32.006Z,28.07
2023-04-03T11:01:32.098Z,28.07
2023-04-03T11:02:32.208Z,28.07
2023-04-03T11:03:32.115Z,28.05
2023-04-03T11:04:31.962Z,28.07
2023-04-03T11:05:31.982Z,28.07
2023-04-03T11:06:31.959Z,28.08
2023-04-03T11:07:31.959Z,28.11
2023-04-03T11:08:32.010Z,28.08
2023-04-03T11:09:31.922Z,28.05
2023-04-03T11:10:31.927Z,28.07
2023-04-03T11:11:31.942Z,28.08
2023-04-03T11:12:31.886Z,28.08
2023-04-03T11:13:31.905Z,28.08
2023-04-03T11:14:32.001Z,28.08
2023-04-03T11:15:31.861Z,28.11
2023-04-03T11:16:35.595Z,28.07
2023-04-03T11:17:32.908Z,28.10
2023-04-03T11:18:31.856Z,28.11
2023-04-03T11:19:31.874Z,28.08
2023-04-03T11:20:31.846Z,28.10
2023-04-03T11:21:31.885Z,28.10
2023-04-03T11:22:31.832Z,28.08
2023-04-03T11:23:46.017Z,28.07
2023-04-03T11:24:32.820Z,28.08
2023-04-03T11:25:31.809Z,28.10
2023-04-03T11:26:31.842Z,28.10
2023-04-03T11:27:31.787Z,28.08
2023-04-03T11:28:31.796Z,28.08
2023-04-03T11:29:35.402Z,28.11
2023-04-03T11:30:31.852Z,28.08
2023-04-03T11:31:31.794Z,28.08
2023-04-03T11:32:31.762Z,28.08
2023-04-03T11:33:31.748Z,28.07
2023-04-03T11:34:31.757Z,28.10
2023-04-03T11:35:31.721Z,28.05
2023-04-03T11:36:36.477Z,28.07
2023-04-03T11:37:32.712Z,28.05
2023-04-03T11:38:31.733Z,28.07
2023-04-03T11:39:31.689Z,28.05
2023-04-03T11:40:31.695Z,28.07
2023-04-03T11:41:31.713Z,28.05
2023-04-03T11:42:31.792Z,28.03
2023-04-03T11:43:31.688Z,28.07
2023-04-03T11:44:31.662Z,28.05
2023-04-03T11:45:31.691Z,28.05
2023-04-03T11:46:31.827Z,28.05
2023-04-03T11:47:31.666Z,28.05
2023-04-03T11:48:31.690Z,28.04
2023-04-03T11:49:31.659Z,28.03
2023-04-03T11:50:31.622Z,28.04
2023-04-03T11:51:31.606Z,28.04
2023-04-03T11:52:31.597Z,28.03
2023-04-03T11:53:31.620Z,28.04
2023-04-03T11:54:38.443Z,28.05
2023-04-03T11:55:32.593Z,28.05
2023-04-03T11:56:31.577Z,28.05
2023-04-03T11:57:31.742Z,28.03
2023-04-03T11:58:31.584Z,28.05
2023-04-03T11:59:31.584Z,28.07
2023-04-03T12:00:31.573Z,28.10
2023-04-03T12:01:31.534Z,28.07
2023-04-03T12:02:34.268Z,28.07
2023-04-03T12:03:31.538Z,28.07
2023-04-03T12:04:31.543Z,28.07
2023-04-03T12:05:31.526Z,28.05
2023-04-03T12:06:31.484Z,28.07
2023-04-03T12:07:31.511Z,28.04
2023-04-03T12:08:31.590Z,28.04
2023-04-03T12:09:31.474Z,28.07
2023-04-03T12:10:32.775Z,28.04
2023-04-03T12:11:31.479Z,28.03
2023-04-03T12:12:31.504Z,28.05
2023-04-03T12:13:31.466Z,28.04
2023-04-03T12:14:31.447Z,28.04
2023-04-03T12:15:31.450Z,28.04
2023-04-03T12:16:31.452Z,28.04
2023-04-03T12:17:31.448Z,28.04
2023-04-03T12:18:31.501Z,28.04
2023-04-03T12:19:41.292Z,28.04
2023-04-03T12:20:32.415Z,28.04
2023-04-03T12:21:31.394Z,28.03
2023-04-03T12:22:31.402Z,28.03
2023-04-03T12:23:31.408Z,28.04
2023-04-03T12:24:31.423Z,28.04
2023-04-03T12:25:31.380Z,28.01
2023-04-03T12:26:35.480Z,28.03
2023-04-03T12:27:32.356Z,28.01
2023-04-03T12:28:31.368Z,28.03
2023-04-03T12:29:31.355Z,28.00
2023-04-03T12:30:31.378Z,28.00
2023-04-03T12:31:31.412Z,28.04
2023-04-03T12:32:31.338Z,28.00
2023-04-03T12:33:31.408Z,28.03
2023-04-03T12:34:31.410Z,28.01
2023-04-03T12:35:31.342Z,28.01
2023-04-03T12:36:31.300Z,28.03
2023-04-03T12:37:31.312Z,28.03
2023-04-03T12:38:31.304Z,28.01
2023-04-03T12:39:31.296Z,28.04
2023-04-03T12:40:31.277Z,28.05
2023-04-03T12:41:31.285Z,28.01
2023-04-03T12:42:31.298Z,28.01
2023-04-03T12:43:31.222Z,28.03
2023-04-03T12:44:31.243Z,28.03
2023-04-03T12:45:31.226Z,28.03
2023-04-03T12:46:31.300Z,28.01
2023-04-03T12:47:31.261Z,28.00
2023-04-03T12:48:31.206Z,28.01
2023-04-03T12:49:31.219Z,28.01
2023-04-03T12:50:31.361Z,28.00
2023-04-03T12:51:31.199Z,28.00
2023-04-03T12:52:31.189Z,28.01
2023-04-03T12:53:31.214Z,28.00
2023-04-03T12:54:31.185Z,27.99